Flight Track Log - Related Links

Times and Time Zones

All times are in EST time to prevent confusion due to time zone crossing. See the SKW6492 flight status page for this flight to view local times or setup timezone preferences in your user account.

Time Position Orientation Groundspeed Altitude Reporting Facility
EST Latitude Longitude Course Direction KTS MPH feet Rate Location/Type
Wed 10:10:10 PM 39.8500 -104.7500 346° North 170 196 6,900  Level Denver TRACON
Wed 10:11:10 PM 39.8667 -104.8167 288° West 202 232 8,900 2,150 Climbing Denver TRACON
Wed 10:12:10 PM 39.9000 -104.8833 303° West 248 285 11,200 2,468 Climbing Denver TRACON
Wed 10:13:00 PM 40.2003 -104.7817 347° North  Level FlightAware Approximate
Wed 10:13:14 PM 39.9797 -104.8942 354° North 265 305 14,000  Level Denver Center
Wed 10:14:00 PM 40.2885 -104.8082 347° North  Level FlightAware Approximate
Wed 10:14:15 PM 40.0636 -104.8906 North 278 320 16,200  Level Denver Center
Wed 10:15:00 PM 40.3763 -104.8365 346° North  Level FlightAware Approximate
Wed 10:15:17 PM 40.1472 -104.8881 North 297 342 18,200  Level Denver Center
Wed 10:16:18 PM 40.2347 -104.8825 North 315 362 19,900 1,623 Climbing Denver Center
Wed 10:17:19 PM 40.3211 -104.8756 North 308 354 21,500 1,415 Climbing Denver Center
Wed 10:18:21 PM 40.4086 -104.8703 North 314 361 22,800 1,171 Climbing Denver Center
Wed 10:19:22 PM 40.5003 -104.8636 North 327 376 23,900 1,122 Climbing Denver Center
Wed 10:20:24 PM 40.5767 -104.9078 336° Northwest 307 353 25,100 1,024 Climbing Denver Center
Wed 10:21:25 PM 40.6461 -104.9722 325° Northwest 306 352 26,000 780 Climbing Denver Center
Wed 10:22:27 PM 40.7317 -105.0539 324° Northwest 315 362 26,700 780 Climbing Denver Center
Wed 10:23:28 PM 40.8036 -105.1264 323° Northwest 324 373 27,600 836 Climbing Denver Center
Wed 10:24:29 PM 40.8758 -105.1942 325° Northwest 322 371 28,400 780 Climbing Denver Center
Wed 10:25:31 PM 40.9458 -105.2617 324° Northwest 316 364 29,200 780 Climbing Denver Center
Wed 10:26:32 PM 41.0150 -105.3292 324° Northwest 310 357 30,000 787 Climbing Denver Center
Wed 10:27:33 PM 41.0906 -105.4031 324° Northwest 315 362 30,800 787 Climbing Denver Center
Wed 10:28:34 PM 41.1567 -105.4700 323° Northwest 313 360 31,600 585 Climbing Denver Center
Wed 10:29:36 PM 41.2369 -105.5392 327° Northwest 309 356 32,000 195 Climbing Denver Center
Wed 10:30:37 PM 41.3086 -105.6017 327° Northwest 317 365 32,000  Level Denver Center
Wed 10:31:38 PM 41.3806 -105.6653 326° Northwest 323 372 32,000  Level Denver Center
Wed 10:32:39 PM 41.4653 -105.7417 326° Northwest 326 375 32,000  Level Denver Center
Wed 10:33:41 PM 41.5381 -105.8061 326° Northwest 327 376 32,000  Level Denver Center
Wed 10:34:42 PM 41.6244 -105.8828 326° Northwest 332 382 32,000  Level Denver Center
Wed 10:35:43 PM 41.6964 -105.9483 326° Northwest 330 380 32,000  Level Denver Center
Wed 10:36:44 PM 41.7683 -106.0106 327° Northwest 325 374 32,000  Level Denver Center
Wed 10:37:46 PM 41.8519 -106.0858 326° Northwest 322 371 32,000  Level Denver Center
Wed 10:38:47 PM 41.9219 -106.1481 327° Northwest 319 367 32,000  Level Denver Center
Wed 10:39:48 PM 41.9933 -106.2125 326° Northwest 319 367 32,000  Level Denver Center
Wed 10:40:49 PM 42.0756 -106.2864 326° Northwest 317 365 32,000  Level Denver Center
Wed 10:41:50 PM 42.1433 -106.3494 325° Northwest 311 358 32,000  Level Denver Center
Wed 10:42:51 PM 42.2022 -106.4019 327° Northwest 315 362 32,000  Level Denver Center
Wed 10:43:53 PM 42.2961 -106.4869 326° Northwest 317 365 32,000  Level Denver Center
Wed 10:44:54 PM 42.3664 -106.5519 326° Northwest 319 367 32,000  Level Denver Center
Wed 10:45:55 PM 42.4489 -106.6267 326° Northwest 319 367 32,000  Level Denver Center
Wed 10:46:56 PM 42.5181 -106.6908 326° Northwest 317 365 32,000  Level Denver Center
Wed 10:47:57 PM 42.5881 -106.7553 326° Northwest 318 366 32,000  Level Denver Center
Wed 10:48:58 PM 42.6700 -106.8325 325° Northwest 320 368 32,000  Level Denver Center
Wed 10:49:59 PM 42.7400 -106.8956 327° Northwest 315 362 32,000  Level Denver Center
Wed 10:51:01 PM 42.8103 -106.9606 326° Northwest 317 365 32,000  Level Denver Center
Wed 10:51:56 PM 42.8775 -107.0228 326° Northwest 321 369 32,000  Level Salt Lake Center
Wed 10:52:57 PM 42.9608 -107.1011 325° Northwest 319 367 32,000  Level Salt Lake Center
Wed 10:53:58 PM 43.0339 -107.1714 325° Northwest 321 369 32,000  Level Salt Lake Center
Wed 10:55:00 PM 43.1072 -107.2403 326° Northwest 321 369 32,000  Level Salt Lake Center
Wed 10:56:01 PM 43.1814 -107.3094 326° Northwest 323 372 32,000  Level Salt Lake Center
Wed 10:57:02 PM 43.2542 -107.3789 325° Northwest 321 369 32,000  Level Salt Lake Center
Wed 10:58:04 PM 43.3267 -107.4489 325° Northwest 319 367 32,000  Level Salt Lake Center
Wed 10:59:05 PM 43.3994 -107.5172 326° Northwest 319 367 32,000  Level Salt Lake Center
Wed 11:00:06 PM 43.4728 -107.5867 326° Northwest 319 367 32,000  Level Salt Lake Center
Wed 11:01:08 PM 43.5433 -107.6564 324° Northwest 314 361 32,000  Level Salt Lake Center
Wed 11:02:09 PM 43.6306 -107.7397 325° Northwest 318 366 32,000  Level Salt Lake Center
Wed 11:03:10 PM 43.7031 -107.8092 325° Northwest 317 365 32,000  Level Salt Lake Center
Wed 11:04:12 PM 43.7744 -107.8792 325° Northwest 315 362 32,000 -683 Level Salt Lake Center
Wed 11:05:13 PM 43.8458 -107.9492 325° Northwest 314 361 30,600 -1,869 Descending Salt Lake Center
Wed 11:06:14 PM 43.9131 -108.0144 325° Northwest 298 343 28,200 -2,293 Descending Salt Lake Center
Wed 11:07:16 PM 43.9811 -108.0792 326° Northwest 297 342 25,900 -2,195 Descending Salt Lake Center
Wed 11:08:17 PM 44.0525 -108.1497 325° Northwest 311 358 23,700 -2,361 Descending Salt Lake Center
Wed 11:09:18 PM 44.1244 -108.2233 324° Northwest 319 367 21,100 -2,439 Descending Salt Lake Center
Wed 11:10:20 PM 44.1939 -108.2908 325° Northwest 312 359 18,700 -2,488 Descending Salt Lake Center
Wed 11:11:21 PM 44.2572 -108.3564 323° Northwest 300 345 16,000 -2,508 Descending Salt Lake Center
Wed 11:12:22 PM 44.3347 -108.4317 325° Northwest 289 333 13,600 -1,756 Descending Salt Lake Center
Wed 11:13:24 PM 44.3956 -108.4908 325° Northwest 281 323 12,400 -1,171 Descending Salt Lake Center
Wed 11:14:25 PM 44.4550 -108.5503 324° Northwest 271 312 11,200 -1,131 Descending Salt Lake Center
Wed 11:15:26 PM 44.5092 -108.6039 325° Northwest 258 297 10,100 -984 Descending Salt Lake Center
Wed 11:16:27 PM 44.5575 -108.6503 326° Northwest 237 273 9,200 -732 Descending Salt Lake Center
Wed 11:17:29 PM 44.6025 -108.6978 323° Northwest 219 252 8,600 -585 Descending Salt Lake Center
Wed 11:18:30 PM 44.6414 -108.7397 323° Northwest 200 230 8,000 -541 Descending Salt Lake Center
Wed 11:19:31 PM 44.6483 -108.7950 280° West 183 211 7,500 -244 Descending Salt Lake Center
Wed 11:20:33 PM 44.6236 -108.8411 233° Southwest 162 186 7,500  Level Salt Lake Center
Wed 11:21:34 PM 44.6000 -108.8839 232° Southwest 148 170 7,500 -443 Level Salt Lake Center
Wed 11:22:35 PM 44.5736 -108.9328 233° Southwest 139 160 6,600 -787 Descending Salt Lake Center
Wed 11:23:36 PM 44.5494 -108.9742 231° Southwest 137 158 5,900 -488 Descending Salt Lake Center
Wed 11:24:38 PM 44.5278 -109.0125 232° Southwest 137 158 5,600 -290 Descending Salt Lake Center

Login

Don't have an account? Register now (free) for customized features, flight alerts, and more!